Latest Weather Observations for Charlton

IDV60801

Issued at 9:02 am EDT Tuesday 22 January 2019 (issued every 10 minutes, with the page automatically refreshed every 10 minutes)

About weather observations | Map of weather stations | Latest weather observations for VIC | Other Formats
Station Details ID: 080128 Name: CHARLTON Lat: -36.28 Lon: 143.33 Height: 131.7 m
Data from the previous 72 hours. | See also: Recent months at Charlton
Date/Time
EDT
Temp
°C
App
Temp
°C
Dew
Point
°C
Rel
Hum
%
Delta-T
°C
Wind Press
QNH
hPa
Press
MSL
hPa
Rain since
9am
mm
Dir  Spd
km/h
Gust
km/h
Spd
kts
Gust
kts
22/09:00am 30.0 30.0 12.4 34 10.4 NE 4 7 2 4 1012.5 1011.9 0.0
22/08:30am 27.7 26.9 12.9 40 8.7 ESE 9 11 5 6 1012.2 1011.6 0.0
22/08:00am 25.2 25.2 13.7 49 6.8 SE 6 9 3 5 1012.2 1011.6 0.0
22/07:30am 22.8 23.3 14.1 58 5.1 S 4 7 2 4 1012.1 1011.5 0.0
22/07:00am 20.9 20.8 13.4 62 4.3 SSE 6 7 3 4 1012.0 1011.4 0.0
22/06:30am 20.9 20.5 13.1 61 4.5 SE 7 11 4 6 1011.7 1011.1 0.0
22/06:00am 21.4 20.7 13.3 60 4.7 ESE 9 13 5 7 1011.5 1010.9 0.0
22/05:30am 21.5 20.4 13.2 59 4.8 SE 11 15 6 8 1011.4 1010.8 0.0
22/05:00am 21.5 21.3 12.9 58 4.9 SSE 6 9 3 5 1011.3 1010.7 0.0
22/04:30am 22.9 21.5 13.4 55 5.5 SE 13 17 7 9 1011.4 1010.8 0.0
22/04:00am 23.3 21.9 13.5 54 5.7 SE 13 19 7 10 1011.7 1011.1 0.0
22/03:30am 23.5 23.0 13.7 54 5.7 S 9 15 5 8 1011.8 1011.2 0.0
22/03:00am 23.8 23.0 13.9 54 5.8 S 11 17 6 9 1011.9 1011.3 0.0
22/02:30am 24.7 23.6 14.2 52 6.2 S 13 20 7 11 1012.2 1011.6 0.0
22/02:00am 25.1 24.5 14.6 52 6.3 S 11 15 6 8 1012.3 1011.7 0.0
22/01:30am 25.9 25.3 14.7 50 6.7 SSW 11 17 6 9 1012.5 1011.9 0.0
22/01:00am 26.9 26.7 14.6 46 7.4 S 9 13 5 7 1012.4 1011.8 0.0
22/12:30am 28.1 26.5 15.1 45 7.9 SSE 17 20 9 11 1012.4 1011.8 0.0
22/12:00am 28.5 27.0 14.3 41 8.6 SSE 15 20 8 11 1012.5 1011.9 0.0
 
Date/Time
EDT
Temp
°C
App
Temp
°C
Dew
Point
°C
Rel
Hum
%
Delta-T
°C
Wind Press
QNH
hPa
Press
MSL
hPa
Rain since
9am
mm
Dir  Spd
km/h
Gust
km/h
Spd
kts
Gust
kts
21/11:30pm 29.6 27.7 12.9 35 9.9 SSE 15 24 8 13 1012.4 1011.8 0.0
21/11:00pm 26.9 26.4 9.3 33 9.7 W 2 7 1 4 1012.2 1011.6 0.0
21/10:30pm 27.8 27.6 9.1 31 10.4 CALM 0 2 0 1 1012.1 1011.5 0.0
21/10:00pm 28.5 27.6 9.2 30 10.8 W 4 6 2 3 1011.8 1011.2 0.0
21/09:30pm 29.7 29.2 9.3 28 11.4 WSW 2 6 1 3 1011.6 1011.0 0.0
21/09:00pm 31.7 31.0 8.7 24 12.9 W 2 7 1 4 1011.3 1010.7 0.0
21/08:30pm 33.8 32.1 7.7 20 14.6 SW 6 7 3 4 1011.0 1010.3 0.0
21/08:00pm 36.5 34.6 7.5 17 16.4 SSW 7 13 4 7 1010.7 1010.0 0.0
21/07:30pm 38.2 36.6 8.0 16 17.3 WSW 6 11 3 6 1010.6 1009.9 0.0
21/07:00pm 37.6 35.7 6.6 15 17.3 SW 6 13 3 7 1010.5 1009.8 0.0
21/06:30pm 37.2 34.7 8.1 17 16.6 NW 11 13 6 7 1010.3 1009.7 0.0
21/06:00pm 38.1 35.7 7.0 15 17.5 W 9 15 5 8 1010.6 1009.9 0.0
21/05:30pm 38.7 36.8 7.4 15 17.8 WSW 7 15 4 8 1010.9 1010.2 0.0
21/05:00pm 37.5 35.2 7.4 16 17.0 S 9 13 5 7 1011.0 1010.3 0.0
21/04:30pm 37.4 35.3 8.2 17 16.7 W 9 17 5 9 1011.3 1010.7 0.0
21/04:00pm 36.9 35.3 7.8 17 16.5 NW 6 9 3 5 1011.5 1010.9 0.0
21/03:30pm 36.3 34.6 9.8 20 15.4 NNW 9 15 5 8 1011.8 1011.2 0.0
21/03:00pm 36.3 34.8 10.5 21 15.2 SSE 9 15 5 8 1012.3 1011.7 0.0
21/02:30pm 35.7 33.7 10.0 21 15.0 WSW 11 17 6 9 1012.6 1012.0 0.0
21/02:00pm 35.2 34.6 10.3 22 14.6 WNW 4 15 2 8 1013.0 1012.4 0.0
21/01:30pm 34.2 32.6 10.1 23 14.0 N 9 15 5 8 1013.5 1012.9 0.0
21/01:00pm 35.0 34.1 11.4 24 14.0 W 7 13 4 7 1013.9 1013.3 0.0
21/12:30pm 33.5 32.8 11.9 27 12.8 S 7 11 4 6 1014.4 1013.8 0.0
21/12:00pm 32.2 30.9 11.4 28 12.2 ENE 9 11 5 6 1014.7 1014.1 0.0
21/11:30am 31.7 31.5 13.0 32 11.2 NE 6 11 3 6 1014.9 1014.3 0.0
21/11:00am 30.4 29.6 12.8 34 10.5 NE 9 13 5 7 1015.2 1014.6 0.0
21/10:30am 28.8 27.7 13.1 38 9.3 NNE 11 15 6 8 1015.4 1014.8 0.0
21/10:00am 27.3 26.3 13.3 42 8.3 ESE 11 15 6 8 1015.8 1015.2 0.0
21/09:30am 25.9 24.9 13.4 46 7.4 ESE 11 19 6 10 1015.9 1015.3 0.0
21/09:00am 24.1 22.6 13.0 50 6.4 SE 13 20 7 11 1016.0 1015.4 0.0
21/08:30am 22.2 21.3 13.8 59 4.9 SE 11 15 6 8 1016.0 1015.4 0.0
21/08:00am 20.0 18.9 13.2 65 3.9 SSE 11 15 6 8 1016.0 1015.4 0.0
21/07:30am 18.6 17.5 13.2 71 3.1 SSE 11 17 6 9 1015.9 1015.3 0.0
21/07:00am 17.8 17.1 13.1 74 2.7 S 9 13 5 7 1015.5 1014.9 0.0
21/06:30am 17.3 16.4 12.6 74 2.6 SSE 9 15 5 8 1015.4 1014.8 0.0
21/06:00am 17.7 16.0 12.6 72 2.9 SSE 13 20 7 11 1015.2 1014.6 0.0
21/05:30am 18.3 16.9 12.3 68 3.3 S 11 17 6 9 1015.1 1014.5 0.0
21/05:00am 18.6 18.0 12.4 67 3.5 S 7 11 4 6 1015.2 1014.6 0.0
21/04:30am 19.1 18.0 12.1 64 3.9 S 9 15 5 8 1015.2 1014.6 0.0
21/04:00am 19.7 18.3 12.2 62 4.2 SSE 11 17 6 9 1015.4 1014.8 0.0
21/03:30am 19.9 18.9 12.2 61 4.3 SSE 9 15 5 8 1015.6 1015.0 0.0
21/03:00am 20.0 19.0 12.3 61 4.3 SSW 9 13 5 7 1015.8 1015.2 0.0
21/02:30am 20.5 19.9 12.2 59 4.7 S 7 11 4 6 1015.8 1015.2 0.0
21/02:00am 21.2 19.8 12.3 57 5.0 SSE 11 19 6 10 1016.1 1015.5 0.0
21/01:30am 22.0 21.0 12.3 54 5.5 S 9 15 5 8 1016.4 1015.8 0.0
21/01:00am 22.3 20.5 12.0 52 5.8 SSE 13 17 7 9 1016.3 1015.7 0.0
21/12:30am 23.3 20.7 12.0 49 6.4 SSE 17 24 9 13 1016.7 1016.1 0.0
21/12:00am 24.0 21.8 12.0 47 6.8 SSE 15 20 8 11 1016.8 1016.2 0.0
 
Date/Time
EDT
Temp
°C
App
Temp
°C
Dew
Point
°C
Rel
Hum
%
Delta-T
°C
Wind Press
QNH
hPa
Press
MSL
hPa
Rain since
9am
mm
Dir  Spd
km/h
Gust
km/h
Spd
kts
Gust
kts
20/11:30pm 24.7 22.2 12.3 46 7.1 SSE 17 28 9 15 1016.8 1016.2 0.0
20/11:00pm 25.4 22.9 11.2 41 8.0 SSE 15 20 8 11 1016.9 1016.3 0.0
20/10:30pm 26.5 23.4 8.9 33 9.7 SSE 15 20 8 11 1016.7 1016.1 0.0
20/10:00pm 27.6 23.6 9.0 31 10.3 SSE 20 26 11 14 1016.4 1015.8 0.0
20/09:30pm 28.9 25.2 10.1 31 10.6 SSE 20 32 11 17 1016.1 1015.5 0.0
20/09:00pm 30.2 25.9 10.7 30 11.2 SSE 24 35 13 19 1015.6 1015.0 0.0
20/08:30pm 31.5 28.2 10.8 28 12.0 SSE 19 28 10 15 1015.1 1014.5 0.0
20/08:00pm 32.7 29.7 10.7 26 12.8 S 17 26 9 14 1014.9 1014.3 0.0
20/07:30pm 33.7 30.4 10.9 25 13.4 S 19 28 10 15 1014.6 1014.0 0.0
20/07:00pm 34.3 31.1 11.4 25 13.6 S 19 33 10 18 1014.5 1013.9 0.0
20/06:30pm 35.1 32.0 11.5 24 14.0 SSE 19 32 10 17 1014.4 1013.8 0.0
20/06:00pm 35.2 33.0 10.9 23 14.3 S 13 26 7 14 1014.5 1013.9 0.0
20/05:30pm 35.9 33.4 10.9 22 14.8 S 15 22 8 12 1014.8 1014.2 0.0
20/05:00pm 35.9 33.7 10.9 22 14.8 SSE 13 22 7 12 1015.0 1014.4 0.0
20/04:30pm 35.6 33.0 10.6 22 14.7 S 15 28 8 15 1015.4 1014.8 0.0
20/04:00pm 35.0 32.8 10.8 23 14.2 SE 13 22 7 12 1015.7 1015.1 0.0
20/03:30pm 34.8 33.1 11.2 24 14.0 S 11 19 6 10 1016.0 1015.4 0.0
20/03:00pm 35.3 33.5 11.0 23 14.3 SSE 11 37 6 20 1016.4 1015.8 0.0
20/02:30pm 34.2 32.6 11.4 25 13.5 SE 11 20 6 11 1016.8 1016.2 0.0
20/02:00pm 33.8 31.5 10.4 24 13.6 S 13 20 7 11 1017.3 1016.7 0.0
20/01:30pm 33.4 30.8 10.7 25 13.2 SE 15 22 8 12 1017.8 1017.2 0.0
20/01:00pm 31.4 28.7 10.2 27 12.1 SE 15 24 8 13 1018.2 1017.7 0.0
20/12:30pm 30.9 28.5 11.3 30 11.4 S 15 24 8 13 1018.8 1018.2 0.0
20/12:00pm 30.8 28.9 11.7 31 11.2 S 13 28 7 15 1019.1 1018.5 0.0
20/11:30am 28.4 25.5 11.0 34 10.0 SSE 17 28 9 15 1019.2 1018.6 0.0
20/11:00am 27.8 24.6 11.4 36 9.4 SSE 19 28 10 15 1019.4 1018.8 0.0
20/10:30am 26.2 23.0 11.2 39 8.5 SSE 19 28 10 15 1019.6 1019.0 0.0
20/10:00am 24.9 22.4 11.1 42 7.8 S 15 22 8 12 1019.8 1019.2 0.0
20/09:30am 22.9 19.9 10.7 46 6.8 SSE 17 26 9 14 1019.9 1019.3 0.0
20/09:00am 21.7 18.9 9.9 47 6.4 SSE 15 22 8 12 1020.1 1019.5 0.0
20/08:30am 19.7 17.1 9.3 51 5.5 SSW 13 19 7 10 1020.1 1019.5 0.0
20/08:00am 18.4 16.2 9.2 55 4.8 SSW 11 17 6 9 1019.8 1019.2 0.0
20/07:30am 17.3 14.7 9.2 59 4.2 S 13 19 7 10 1019.5 1018.9 0.0
20/07:00am 16.1 14.0 9.8 66 3.3 S 11 15 6 8 1019.3 1018.7 0.0
20/06:30am 15.7 13.6 9.6 67 3.2 S 11 19 6 10 1019.0 1018.4 0.0
20/06:00am 15.8 13.4 9.9 68 3.1 S 13 20 7 11 1018.9 1018.3 0.0
20/05:30am 15.8 13.4 9.9 68 3.1 S 13 20 7 11 1018.9 1018.3 0.0
20/05:00am 15.9 13.5 10.0 68 3.1 S 13 19 7 10 1018.9 1018.3 0.0
20/04:30am 15.9 13.4 9.6 66 3.3 S 13 19 7 10 1019.2 1018.6 0.0
20/04:00am 16.2 14.0 9.4 64 3.5 S 11 22 6 12 1019.4 1018.8 0.0
20/03:30am 16.6 14.0 9.5 63 3.7 S 13 20 7 11 1019.8 1019.2 0.0
20/03:00am 16.8 14.6 9.2 61 4.0 S 11 19 6 10 1020.1 1019.5 0.0
20/02:30am 17.1 14.9 9.3 60 4.1 S 11 20 6 11 1020.1 1019.5 0.0
20/02:00am 17.6 15.2 8.7 56 4.6 S 11 20 6 11 1020.2 1019.6 0.0
20/01:30am 18.2 15.4 8.5 53 5.0 S 13 22 7 12 1020.2 1019.6 0.0
20/01:00am 18.7 14.7 8.1 50 5.5 SSE 19 30 10 16 1020.1 1019.5 0.0
20/12:30am 19.7 14.9 7.4 45 6.3 SSE 22 33 12 18 1020.3 1019.7 0.0
20/12:00am 20.4 16.0 6.7 41 6.9 SSE 19 32 10 17 1020.2 1019.6 0.0
 
Date/Time
EDT
Temp
°C
App
Temp
°C
Dew
Point
°C
Rel
Hum
%
Delta-T
°C
Wind Press
QNH
hPa
Press
MSL
hPa
Rain since
9am
mm
Dir  Spd
km/h
Gust
km/h
Spd
kts
Gust
kts
19/11:30pm 21.3 16.7 6.4 38 7.6 SSE 20 26 11 14 1020.1 1019.5 0.0
19/11:00pm 22.0 17.7 5.4 34 8.3 SSE 17 26 9 14 1019.6 1019.0 0.0
19/10:30pm 22.9 19.2 4.4 30 9.2 S 13 20 7 11 1019.8 1019.2 0.0
19/10:00pm 23.9 19.8 4.3 28 9.7 S 15 22 8 12 1019.4 1018.8 0.0
19/09:30pm 24.5 20.4 4.3 27 10.1 SSE 15 20 8 11 1018.8 1018.2 0.0
19/09:00pm 25.4 21.2 4.0 25 10.7 SSE 15 20 8 11 1018.6 1018.0 0.0
19/08:30pm 26.6 21.6 4.4 24 11.3 SSE 20 30 11 16 1018.0 1017.5 0.0
19/08:00pm 27.8 22.1 4.8 23 11.8 SSE 24 35 13 19 1017.4 1016.8 0.0
19/07:30pm 28.9 23.6 5.1 22 12.4 SSE 22 32 12 17 1017.3 1016.7 0.0
19/07:00pm 29.7 24.3 4.4 20 13.1 SSE 22 32 12 17 1017.1 1016.5 0.0
19/06:30pm 30.2 25.1 4.0 19 13.5 SSE 20 30 11 16 1017.1 1016.5 0.0
19/06:00pm 30.5 25.4 4.3 19 13.6 SSE 20 37 11 20 1017.1 1016.5 0.0
19/05:30pm 30.4 25.5 4.2 19 13.6 SSE 19 28 10 15 1017.6 1017.0 0.0
19/05:00pm 30.4 26.0 4.9 20 13.3 SSE 17 28 9 15 1017.8 1017.2 0.0
19/04:30pm 31.3 27.5 5.7 20 13.7 S 15 24 8 13 1018.1 1017.6 0.0
19/04:00pm 30.3 26.7 6.9 23 12.6 SSE 15 24 8 13 1018.4 1017.8 0.0
19/03:30pm 29.7 25.5 5.7 22 12.7 S 17 26 9 14 1018.6 1018.0 0.0
19/03:00pm 29.1 25.2 5.2 22 12.5 SSW 15 28 8 15 1018.9 1018.3 0.0
19/02:30pm 28.8 25.5 6.2 24 12.0 SSW 13 24 7 13 1019.2 1018.6 0.0
19/02:00pm 27.2 23.4 6.0 26 11.1 SSW 15 24 8 13 1019.7 1019.1 0.0
19/01:30pm 26.8 22.4 4.6 24 11.3 SSW 17 26 9 14 1020.1 1019.5 0.0
19/01:00pm 26.6 21.8 2.5 21 11.8 SSW 17 28 9 15 1020.2 1019.6 0.0
19/12:30pm 24.9 20.0 4.1 26 10.4 SSW 19 30 10 16 1020.5 1019.9 0.0
19/12:00pm 25.0 21.9 7.2 32 9.4 SSW 13 24 7 13 1020.7 1020.1 0.0
19/11:30am 23.3 19.9 7.8 37 8.2 SSW 15 30 8 16 1020.9 1020.3 0.0
19/11:00am 22.7 18.9 7.7 38 7.9 SSE 17 28 9 15 1021.0 1020.4 0.0
19/10:30am 21.8 18.5 8.0 41 7.3 SSW 15 28 8 15 1021.2 1020.6 0.0
19/10:00am 21.1 17.5 8.4 44 6.7 S 17 24 9 13 1021.2 1020.6 0.0
19/09:30am 20.5 17.5 9.1 48 6.1 S 15 28 8 15 1021.1 1020.5 0.0

Other Formats:

Comma delimited format used in spreadsheet applications
http://www.bom.gov.au/fwo/IDV60801/IDV60801.94839.axf

JavaScript Object Notation format (JSON) in row-major order
http://www.bom.gov.au/fwo/IDV60801/IDV60801.94839.json